createdAt,value
2023-05-08T00:00:19.670Z,41.45
2023-05-08T00:00:51.092Z,41.27
2023-05-08T00:01:22.494Z,41.55
2023-05-08T00:01:53.907Z,41.74
2023-05-08T00:02:25.368Z,41.69
2023-05-08T00:02:56.918Z,41.71
2023-05-08T00:03:28.709Z,41.27
2023-05-08T00:04:00.431Z,41.33
2023-05-08T00:04:32.011Z,41.70
2023-05-08T00:05:03.500Z,41.51
2023-05-08T00:05:34.945Z,41.11
2023-05-08T00:06:06.335Z,41.45
2023-05-08T00:06:37.756Z,41.75
2023-05-08T00:07:09.168Z,41.43
2023-05-08T00:07:40.553Z,41.65
2023-05-08T00:08:11.977Z,41.07
2023-05-08T00:08:43.404Z,41.48
2023-05-08T00:09:14.814Z,41.25
2023-05-08T00:09:46.216Z,41.46
2023-05-08T00:10:17.613Z,41.72
2023-05-08T00:10:49.059Z,41.67
2023-05-08T00:11:20.623Z,41.54
2023-05-08T00:11:52.023Z,41.42
2023-05-08T00:12:23.434Z,41.41
2023-05-08T00:12:54.892Z,41.40
2023-05-08T00:13:26.390Z,41.46
2023-05-08T00:13:57.811Z,41.40
2023-05-08T00:14:29.222Z,41.52
2023-05-08T00:15:00.632Z,41.50
2023-05-08T00:15:32.039Z,41.42
2023-05-08T00:16:03.482Z,41.73
2023-05-08T00:16:34.987Z,41.82
2023-05-08T00:17:06.495Z,41.33
2023-05-08T00:17:37.972Z,41.51
2023-05-08T00:18:09.436Z,41.54
2023-05-08T00:18:40.877Z,41.47
2023-05-08T00:19:12.282Z,41.17
2023-05-08T00:19:43.673Z,41.34
2023-05-08T00:20:15.327Z,41.46
2023-05-08T00:20:46.955Z,41.52
2023-05-08T00:21:18.364Z,41.46
2023-05-08T00:21:49.756Z,41.52
2023-05-08T00:22:21.159Z,41.76
2023-05-08T00:22:52.574Z,41.78
2023-05-08T00:23:23.972Z,41.63
2023-05-08T00:23:55.403Z,41.42
2023-05-08T00:24:26.806Z,41.59
2023-05-08T00:24:58.211Z,41.77
2023-05-08T00:25:29.659Z,41.70
2023-05-08T00:26:01.102Z,41.20
2023-05-08T00:26:32.538Z,41.37
2023-05-08T00:27:03.971Z,41.11
2023-05-08T00:27:35.382Z,41.59
2023-05-08T00:28:06.788Z,41.28
2023-05-08T00:28:38.188Z,41.25
2023-05-08T00:29:09.659Z,41.51
2023-05-08T00:29:41.085Z,41.45
2023-05-08T00:30:12.693Z,41.41
2023-05-08T00:30:44.338Z,41.40
2023-05-08T00:31:15.738Z,41.71
2023-05-08T00:31:47.173Z,41.33
2023-05-08T00:32:18.755Z,41.33
2023-05-08T00:32:50.311Z,41.37
2023-05-08T00:33:21.749Z,41.29
2023-05-08T00:33:53.172Z,41.43
2023-05-08T00:34:24.576Z,41.41
2023-05-08T00:34:55.978Z,41.41
2023-05-08T00:35:27.378Z,41.66
2023-05-08T00:35:58.803Z,41.27
2023-05-08T00:36:30.186Z,41.68
2023-05-08T00:37:01.571Z,41.31
2023-05-08T00:37:33.040Z,41.19
2023-05-08T00:38:04.458Z,41.47
2023-05-08T00:38:35.864Z,41.51
2023-05-08T00:39:07.272Z,41.54
2023-05-08T00:39:38.677Z,41.65
2023-05-08T00:40:10.260Z,41.53
2023-05-08T00:40:41.764Z,41.76
2023-05-08T00:41:13.197Z,41.19
2023-05-08T00:41:44.613Z,41.50
2023-05-08T00:42:16.032Z,41.58
2023-05-08T00:42:47.439Z,41.65
2023-05-08T00:43:18.825Z,41.11
2023-05-08T00:43:50.258Z,41.79
2023-05-08T00:44:21.683Z,41.57
2023-05-08T00:44:53.101Z,41.29
2023-05-08T00:45:24.523Z,41.22
2023-05-08T00:45:56.045Z,41.52
2023-05-08T00:46:27.506Z,41.38
2023-05-08T00:46:58.951Z,41.20
2023-05-08T00:47:30.378Z,41.46
2023-05-08T00:48:01.842Z,41.63
2023-05-08T00:48:33.246Z,41.52
2023-05-08T00:49:04.664Z,41.38
2023-05-08T00:49:36.100Z,41.47
2023-05-08T00:50:07.548Z,41.20
2023-05-08T00:50:38.992Z,41.55
2023-05-08T00:51:10.405Z,41.40
2023-05-08T00:51:41.823Z,41.45
2023-05-08T00:52:13.231Z,41.34
2023-05-08T00:52:44.638Z,41.62
2023-05-08T00:53:16.093Z,41.52
2023-05-08T00:53:47.478Z,41.72
2023-05-08T00:54:18.866Z,41.63
2023-05-08T00:54:50.274Z,41.63
2023-05-08T00:55:21.687Z,41.55
2023-05-08T00:55:53.110Z,41.37
2023-05-08T00:56:24.516Z,41.38
2023-05-08T00:56:55.914Z,41.41
2023-05-08T00:57:27.309Z,41.39
2023-05-08T00:57:58.717Z,41.35
2023-05-08T00:58:30.135Z,41.80
2023-05-08T00:59:01.539Z,41.42
2023-05-08T00:59:32.974Z,41.34
2023-05-08T01:00:04.423Z,41.55
2023-05-08T01:00:35.845Z,41.10
2023-05-08T01:01:07.290Z,41.46
2023-05-08T01:01:38.725Z,41.52
2023-05-08T01:02:10.220Z,41.39
2023-05-08T01:02:41.707Z,41.45
2023-05-08T01:03:13.223Z,41.18
2023-05-08T01:03:44.944Z,41.42
2023-05-08T01:04:16.487Z,41.70
2023-05-08T01:04:47.920Z,41.26
2023-05-08T01:05:19.329Z,42.04
2023-05-08T01:05:50.733Z,41.49
2023-05-08T01:06:22.163Z,41.35
2023-05-08T01:06:53.561Z,41.19
2023-05-08T01:07:24.969Z,41.10
2023-05-08T01:07:56.373Z,41.16
2023-05-08T01:08:27.798Z,41.49
2023-05-08T01:08:59.225Z,41.47
2023-05-08T01:09:30.674Z,41.15
2023-05-08T01:10:02.111Z,41.71
2023-05-08T01:10:33.530Z,41.56
2023-05-08T01:11:04.942Z,41.80
2023-05-08T01:11:36.372Z,41.40
2023-05-08T01:12:07.796Z,41.45
2023-05-08T01:12:39.251Z,41.71
2023-05-08T01:13:10.727Z,41.30
2023-05-08T01:13:42.167Z,41.56
2023-05-08T01:14:13.560Z,41.19
2023-05-08T01:14:45.006Z,41.35
2023-05-08T01:15:16.421Z,41.69
2023-05-08T01:15:47.844Z,41.43
2023-05-08T01:16:19.326Z,41.37
2023-05-08T01:16:50.787Z,41.36
2023-05-08T01:17:22.248Z,41.26
2023-05-08T01:17:53.691Z,41.28
2023-05-08T01:18:25.143Z,41.89
2023-05-08T01:18:56.548Z,41.85
2023-05-08T01:19:27.984Z,41.78
2023-05-08T01:19:59.405Z,41.42
2023-05-08T01:20:30.824Z,41.52
2023-05-08T01:21:02.227Z,41.46
2023-05-08T01:21:33.622Z,41.71
2023-05-08T01:22:05.055Z,41.54
2023-05-08T01:22:36.450Z,41.30
2023-05-08T01:23:07.882Z,41.59
2023-05-08T01:23:39.303Z,41.46
2023-05-08T01:24:10.727Z,41.61
2023-05-08T01:24:42.165Z,41.28
2023-05-08T01:25:13.565Z,41.53
2023-05-08T01:25:44.970Z,41.54
2023-05-08T01:26:16.403Z,41.84
2023-05-08T01:26:47.820Z,41.42
2023-05-08T01:27:19.210Z,41.84
2023-05-08T01:27:50.670Z,41.23
2023-05-08T01:28:22.087Z,41.61
2023-05-08T01:28:53.495Z,41.56
2023-05-08T01:29:24.891Z,41.30
2023-05-08T01:29:56.334Z,41.51
2023-05-08T01:30:27.738Z,41.31
2023-05-08T01:30:59.136Z,41.50
2023-05-08T01:31:30.551Z,41.60
2023-05-08T01:32:02.007Z,41.32
2023-05-08T01:32:33.446Z,41.55
2023-05-08T01:33:04.966Z,41.63
2023-05-08T01:33:36.453Z,41.82
2023-05-08T01:34:07.892Z,41.53
2023-05-08T01:34:39.366Z,41.61
2023-05-08T01:35:10.772Z,41.56
2023-05-08T01:35:42.184Z,41.67
2023-05-08T01:36:13.631Z,41.77
2023-05-08T01:36:45.031Z,41.64
2023-05-08T01:37:16.487Z,41.89
2023-05-08T01:37:47.899Z,41.73
2023-05-08T01:38:19.318Z,41.59
2023-05-08T01:38:51.221Z,41.70
2023-05-08T01:39:22.667Z,41.64
2023-05-08T01:39:54.091Z,41.37
2023-05-08T01:40:25.477Z,41.94
2023-05-08T01:40:56.928Z,41.64
2023-05-08T01:41:28.375Z,41.40
2023-05-08T01:41:59.778Z,41.41
2023-05-08T01:42:31.183Z,41.67
2023-05-08T01:43:02.598Z,41.46
2023-05-08T01:43:34.014Z,41.44
2023-05-08T01:44:05.409Z,41.58
2023-05-08T01:44:36.827Z,41.86
2023-05-08T01:45:08.243Z,41.59
2023-05-08T01:45:39.653Z,41.76
2023-05-08T01:46:11.139Z,41.65
2023-05-08T01:46:42.617Z,41.54
2023-05-08T01:47:14.103Z,41.91
2023-05-08T01:47:45.601Z,41.64
2023-05-08T01:48:17.055Z,41.49
2023-05-08T01:48:48.462Z,41.62
2023-05-08T01:49:19.871Z,41.36
2023-05-08T01:49:51.298Z,41.96
2023-05-08T01:50:22.715Z,41.57
2023-05-08T01:50:54.125Z,41.68
2023-05-08T01:51:25.556Z,41.50
2023-05-08T01:51:56.968Z,41.49
2023-05-08T01:52:28.451Z,41.60
2023-05-08T01:52:59.866Z,41.40
2023-05-08T01:53:31.271Z,41.71
2023-05-08T01:54:02.732Z,41.39
2023-05-08T01:54:34.128Z,41.75
2023-05-08T01:55:05.552Z,41.84
2023-05-08T01:55:36.957Z,41.52
2023-05-08T01:56:08.373Z,41.21
2023-05-08T01:56:39.783Z,41.65
2023-05-08T01:57:11.208Z,41.71
2023-05-08T01:57:42.594Z,42.00
2023-05-08T01:58:13.996Z,41.50
2023-05-08T01:58:45.402Z,41.67
2023-05-08T01:59:16.829Z,41.71
2023-05-08T01:59:48.244Z,41.46
2023-05-08T02:00:19.633Z,41.58
2023-05-08T02:00:51.088Z,41.60
2023-05-08T02:01:22.574Z,41.44
2023-05-08T02:01:54.097Z,42.04
2023-05-08T02:02:25.574Z,41.83
2023-05-08T02:02:57.135Z,42.07
2023-05-08T02:03:28.703Z,41.83
2023-05-08T02:04:00.256Z,41.70
2023-05-08T02:04:31.784Z,41.55
2023-05-08T02:05:03.201Z,41.75
2023-05-08T02:05:34.615Z,41.60
2023-05-08T02:06:06.020Z,42.06
2023-05-08T02:06:37.469Z,41.92
2023-05-08T02:07:08.894Z,41.60
2023-05-08T02:07:40.311Z,41.52
2023-05-08T02:08:11.718Z,41.99
2023-05-08T02:08:43.137Z,41.91
2023-05-08T02:09:14.546Z,41.85
2023-05-08T02:09:45.954Z,41.71
2023-05-08T02:10:17.412Z,41.54
2023-05-08T02:10:48.849Z,41.77
2023-05-08T02:11:20.260Z,41.96
2023-05-08T02:11:51.656Z,41.78
2023-05-08T02:12:23.102Z,42.40
2023-05-08T02:12:54.534Z,41.51
2023-05-08T02:13:26.025Z,41.97
2023-05-08T02:13:57.499Z,41.95
2023-05-08T02:14:28.909Z,41.69
2023-05-08T02:15:00.328Z,41.96
2023-05-08T02:15:31.820Z,41.96
2023-05-08T02:16:03.262Z,41.58
2023-05-08T02:16:34.794Z,41.61
2023-05-08T02:17:06.313Z,41.98
2023-05-08T02:17:37.835Z,41.45
2023-05-08T02:18:09.295Z,41.79
2023-05-08T02:18:40.710Z,41.47
2023-05-08T02:19:12.112Z,41.73
2023-05-08T02:19:43.513Z,41.77
2023-05-08T02:20:15.262Z,41.71
2023-05-08T02:20:46.806Z,42.07
2023-05-08T02:21:18.218Z,41.67
2023-05-08T02:21:49.646Z,41.88
2023-05-08T02:22:21.099Z,41.76
2023-05-08T02:22:52.509Z,41.80
2023-05-08T02:23:23.903Z,41.80
2023-05-08T02:23:55.322Z,41.95
2023-05-08T02:24:26.719Z,41.57
2023-05-08T02:24:58.126Z,41.97
2023-05-08T02:25:29.546Z,41.80
2023-05-08T02:26:00.968Z,41.95
2023-05-08T02:26:32.359Z,41.75
2023-05-08T02:27:03.782Z,41.84
2023-05-08T02:27:35.240Z,41.55
2023-05-08T02:28:06.650Z,41.67
2023-05-08T02:28:38.065Z,41.57
2023-05-08T02:29:09.457Z,41.87
2023-05-08T02:29:40.872Z,41.78
2023-05-08T02:30:12.486Z,41.76
2023-05-08T02:30:44.076Z,42.05
2023-05-08T02:31:15.521Z,41.80
2023-05-08T02:31:46.961Z,41.51
2023-05-08T02:32:18.581Z,42.07
2023-05-08T02:32:50.187Z,41.52
2023-05-08T02:33:21.607Z,41.69
2023-05-08T02:33:53.024Z,41.54
2023-05-08T02:34:24.432Z,41.95
2023-05-08T02:35:02.999Z,41.63
2023-05-08T02:35:35.132Z,42.04
2023-05-08T02:36:06.578Z,41.66
2023-05-08T02:36:37.994Z,41.44
2023-05-08T02:37:09.382Z,42.02
2023-05-08T02:37:40.772Z,41.98
2023-05-08T02:38:12.212Z,41.74
2023-05-08T02:38:43.638Z,42.09
2023-05-08T02:39:15.066Z,41.75
2023-05-08T02:39:46.490Z,41.46
2023-05-08T02:40:17.902Z,42.07
2023-05-08T02:40:49.332Z,42.08
2023-05-08T02:41:20.734Z,41.65
2023-05-08T02:41:52.134Z,41.62
2023-05-08T02:42:23.523Z,41.51
2023-05-08T02:42:54.919Z,41.66
2023-05-08T02:43:26.360Z,41.89
2023-05-08T02:43:57.774Z,41.93
2023-05-08T02:44:29.161Z,41.59
2023-05-08T02:45:00.575Z,41.71
2023-05-08T02:45:31.997Z,41.78
2023-05-08T02:46:03.533Z,41.95
2023-05-08T02:46:35.117Z,41.58
2023-05-08T02:47:07.292Z,41.54
2023-05-08T02:47:38.892Z,41.85
2023-05-08T02:48:10.320Z,42.05
2023-05-08T02:48:41.723Z,41.78
2023-05-08T02:49:13.138Z,42.21
2023-05-08T02:49:44.567Z,41.93
2023-05-08T02:50:16.195Z,41.98
2023-05-08T02:50:47.652Z,41.93
2023-05-08T02:51:19.057Z,41.59
2023-05-08T02:51:50.480Z,41.94
2023-05-08T02:52:21.886Z,42.08
2023-05-08T02:52:53.278Z,42.27
2023-05-08T02:53:24.726Z,41.63
2023-05-08T02:53:56.127Z,41.99
2023-05-08T02:54:27.526Z,41.82
2023-05-08T02:54:58.974Z,42.02
2023-05-08T02:55:30.378Z,42.20
2023-05-08T02:56:01.776Z,42.29
2023-05-08T02:56:33.174Z,42.12
2023-05-08T02:57:04.576Z,41.47
2023-05-08T02:57:35.982Z,41.93
2023-05-08T02:58:07.383Z,42.23
2023-05-08T02:58:38.809Z,42.01
2023-05-08T02:59:10.224Z,42.18
2023-05-08T02:59:41.657Z,41.92
2023-05-08T03:00:13.493Z,42.05
2023-05-08T03:00:45.108Z,41.71
2023-05-08T03:01:16.545Z,42.24
2023-05-08T03:01:48.052Z,41.64
2023-05-08T03:02:19.524Z,42.05
2023-05-08T03:02:51.034Z,42.12
2023-05-08T03:03:22.586Z,42.21
2023-05-08T03:03:54.249Z,41.67
2023-05-08T03:04:25.685Z,42.21
2023-05-08T03:04:57.106Z,42.09
2023-05-08T03:05:28.591Z,41.81
2023-05-08T03:05:59.993Z,41.95
2023-05-08T03:06:31.411Z,42.12
2023-05-08T03:07:02.844Z,42.02
2023-05-08T03:07:34.238Z,41.96
2023-05-08T03:08:05.653Z,42.14
2023-05-08T03:08:37.075Z,41.87
2023-05-08T03:09:08.488Z,41.78
2023-05-08T03:09:39.907Z,42.23
2023-05-08T03:10:11.456Z,41.90
2023-05-08T03:10:43.159Z,42.33
2023-05-08T03:11:14.558Z,42.01
2023-05-08T03:11:45.978Z,42.53
2023-05-08T03:12:17.386Z,42.19
2023-05-08T03:12:48.826Z,42.33
2023-05-08T03:13:20.359Z,42.05
2023-05-08T03:13:51.850Z,41.89
2023-05-08T03:14:23.290Z,41.99
2023-05-08T03:14:54.704Z,41.67
2023-05-08T03:15:26.143Z,42.25
2023-05-08T03:15:57.578Z,42.22
2023-05-08T03:16:29.160Z,42.04
2023-05-08T03:17:00.635Z,42.19
2023-05-08T03:17:32.097Z,41.74
2023-05-08T03:18:03.576Z,42.29
2023-05-08T03:18:35.014Z,41.34
2023-05-08T03:19:06.415Z,42.06
2023-05-08T03:19:37.830Z,41.83
2023-05-08T03:20:09.252Z,42.16
2023-05-08T03:20:40.693Z,41.77
2023-05-08T03:21:12.105Z,42.03
2023-05-08T03:21:43.519Z,42.24
2023-05-08T03:22:14.917Z,41.65
2023-05-08T03:22:46.328Z,41.97
2023-05-08T03:23:17.741Z,41.93
2023-05-08T03:23:49.157Z,41.54
2023-05-08T03:24:20.567Z,42.03
2023-05-08T03:24:51.995Z,42.25
2023-05-08T03:25:23.409Z,41.66
2023-05-08T03:25:54.846Z,42.08
2023-05-08T03:26:26.259Z,41.80
2023-05-08T03:26:57.662Z,42.07
2023-05-08T03:27:29.082Z,42.05
2023-05-08T03:28:00.491Z,41.92
2023-05-08T03:28:31.903Z,41.91
2023-05-08T03:29:03.313Z,42.04
2023-05-08T03:29:34.725Z,41.75
2023-05-08T03:30:06.160Z,41.98
2023-05-08T03:30:37.628Z,42.37
2023-05-08T03:31:09.090Z,41.92
2023-05-08T03:31:40.602Z,42.22
2023-05-08T03:32:12.040Z,42.00
2023-05-08T03:32:43.525Z,42.30
2023-05-08T03:33:14.965Z,42.13
2023-05-08T03:33:46.404Z,42.15
2023-05-08T03:34:17.810Z,42.61
2023-05-08T03:34:49.223Z,42.48
2023-05-08T03:35:20.616Z,41.70
2023-05-08T03:35:52.044Z,41.93
2023-05-08T03:36:23.427Z,42.04
2023-05-08T03:36:54.806Z,42.31
2023-05-08T03:37:26.193Z,42.00
2023-05-08T03:37:57.602Z,42.06
2023-05-08T03:38:29.002Z,42.10
2023-05-08T03:39:00.432Z,41.84
2023-05-08T03:39:31.831Z,42.01
2023-05-08T03:40:03.243Z,42.39
2023-05-08T03:40:34.667Z,41.96
2023-05-08T03:41:06.115Z,41.73
2023-05-08T03:41:37.525Z,41.86
2023-05-08T03:42:08.942Z,42.22
2023-05-08T03:42:40.349Z,42.19
2023-05-08T03:43:11.760Z,42.09
2023-05-08T03:43:43.190Z,42.51
2023-05-08T03:44:14.638Z,42.16
2023-05-08T03:44:46.058Z,42.35
2023-05-08T03:45:17.486Z,41.94
2023-05-08T03:45:48.923Z,42.12
2023-05-08T03:46:20.349Z,42.03
2023-05-08T03:46:51.814Z,42.48
2023-05-08T03:47:23.254Z,42.10
2023-05-08T03:47:54.736Z,42.36
2023-05-08T03:48:26.162Z,42.07
2023-05-08T03:48:57.564Z,42.52
2023-05-08T03:49:28.965Z,42.35
2023-05-08T03:50:00.367Z,41.70
2023-05-08T03:50:31.778Z,42.12
2023-05-08T03:51:03.248Z,42.08
2023-05-08T03:51:34.680Z,42.50
2023-05-08T03:52:06.071Z,42.15
2023-05-08T03:52:37.475Z,42.17
2023-05-08T03:53:08.886Z,41.90
2023-05-08T03:53:40.314Z,42.17
2023-05-08T03:54:11.731Z,42.01
2023-05-08T03:54:43.151Z,42.22
2023-05-08T03:55:14.575Z,42.25
2023-05-08T03:55:45.982Z,42.11
2023-05-08T03:56:17.363Z,42.42
2023-05-08T03:56:48.788Z,42.01
2023-05-08T03:57:20.198Z,42.32
2023-05-08T03:57:51.629Z,41.89
2023-05-08T03:58:23.057Z,42.36
2023-05-08T03:58:54.454Z,42.09
2023-05-08T03:59:25.861Z,42.27
2023-05-08T03:59:57.266Z,41.96
2023-05-08T04:00:28.692Z,42.16
2023-05-08T04:01:00.116Z,41.96
2023-05-08T04:01:31.537Z,42.26
2023-05-08T04:02:03.040Z,42.05
2023-05-08T04:02:34.608Z,42.09
2023-05-08T04:03:06.164Z,42.67
2023-05-08T04:03:37.831Z,42.48
2023-05-08T04:04:09.389Z,42.08
2023-05-08T04:04:40.841Z,42.24
2023-05-08T04:05:12.274Z,42.27
2023-05-08T04:05:43.685Z,41.78
2023-05-08T04:06:15.093Z,42.17
2023-05-08T04:06:50.573Z,41.99
2023-05-08T04:07:22.436Z,41.94
2023-05-08T04:07:53.856Z,42.04
2023-05-08T04:08:25.282Z,42.64
2023-05-08T04:08:56.680Z,42.10
2023-05-08T04:09:28.125Z,42.52
2023-05-08T04:09:59.528Z,42.13
2023-05-08T04:10:30.958Z,42.14
2023-05-08T04:11:02.362Z,41.89
2023-05-08T04:11:33.762Z,42.11
2023-05-08T04:12:05.160Z,42.18
2023-05-08T04:12:36.657Z,42.25
2023-05-08T04:13:08.183Z,42.43
2023-05-08T04:13:39.602Z,41.88
2023-05-08T04:14:11.005Z,42.33
2023-05-08T04:14:42.457Z,41.97
2023-05-08T04:15:14.006Z,41.98
2023-05-08T04:15:45.628Z,42.19
2023-05-08T04:16:17.128Z,42.31
2023-05-08T04:16:48.611Z,42.25
2023-05-08T04:17:20.302Z,42.19
2023-05-08T04:17:51.830Z,41.97
2023-05-08T04:18:23.291Z,42.19
2023-05-08T04:18:54.698Z,42.50
2023-05-08T04:19:26.093Z,42.27
2023-05-08T04:19:57.514Z,42.06
2023-05-08T04:20:28.944Z,42.34
2023-05-08T04:21:00.362Z,42.38
2023-05-08T04:21:31.758Z,42.17
2023-05-08T04:22:03.178Z,42.19
2023-05-08T04:22:34.616Z,42.19
2023-05-08T04:23:06.028Z,42.20
2023-05-08T04:23:37.440Z,42.16
2023-05-08T04:24:08.848Z,42.28
2023-05-08T04:24:40.257Z,42.29
2023-05-08T04:25:11.921Z,42.02
2023-05-08T04:25:43.488Z,41.99
2023-05-08T04:26:16.387Z,42.13
2023-05-08T04:26:48.036Z,42.29
2023-05-08T04:27:19.462Z,42.02
2023-05-08T04:27:50.868Z,41.95
2023-05-08T04:28:22.292Z,41.65
2023-05-08T04:28:53.732Z,42.23
2023-05-08T04:29:25.164Z,42.42
2023-05-08T04:29:56.566Z,42.20
2023-05-08T04:30:27.975Z,42.26
2023-05-08T04:30:59.363Z,42.44
2023-05-08T04:31:30.799Z,42.38
2023-05-08T04:32:02.267Z,41.95
2023-05-08T04:32:33.707Z,41.86
2023-05-08T04:33:05.189Z,42.12
2023-05-08T04:33:36.616Z,42.20
2023-05-08T04:34:08.150Z,41.92
2023-05-08T04:34:39.571Z,42.20
2023-05-08T04:35:11.090Z,42.37
2023-05-08T04:35:42.713Z,41.92
2023-05-08T04:36:14.109Z,41.97
2023-05-08T04:36:45.509Z,42.06
2023-05-08T04:37:16.931Z,42.47
2023-05-08T04:37:48.354Z,42.14
2023-05-08T04:38:19.776Z,42.58
2023-05-08T04:38:51.222Z,41.92
2023-05-08T04:39:22.670Z,42.37
2023-05-08T04:39:54.064Z,42.22
2023-05-08T04:40:25.466Z,42.57
2023-05-08T04:40:56.902Z,42.14
2023-05-08T04:41:28.502Z,41.89
2023-05-08T04:41:59.909Z,42.10
2023-05-08T04:42:31.302Z,42.06
2023-05-08T04:43:02.739Z,42.25
2023-05-08T04:43:34.170Z,42.60
2023-05-08T04:44:05.572Z,42.29
2023-05-08T04:44:36.983Z,42.17
2023-05-08T04:45:08.631Z,42.31
2023-05-08T04:45:40.073Z,41.97
2023-05-08T04:46:11.515Z,42.04
2023-05-08T04:46:42.945Z,41.85
2023-05-08T04:47:14.339Z,42.10
2023-05-08T04:47:45.774Z,42.11
2023-05-08T04:48:17.184Z,41.88
2023-05-08T04:48:48.580Z,42.24
2023-05-08T04:49:20.001Z,42.07
2023-05-08T04:49:51.433Z,41.95
2023-05-08T04:50:22.846Z,41.89
2023-05-08T04:50:54.239Z,42.13
2023-05-08T04:51:25.638Z,42.11
2023-05-08T04:51:57.048Z,42.14
2023-05-08T04:52:28.481Z,42.07
2023-05-08T04:52:59.886Z,42.10
2023-05-08T04:53:31.311Z,41.86
2023-05-08T04:54:02.756Z,42.10
2023-05-08T04:54:34.146Z,42.41
2023-05-08T04:55:05.606Z,42.36
2023-05-08T04:55:37.023Z,41.80
2023-05-08T04:56:08.437Z,42.02
2023-05-08T04:56:39.848Z,42.06
2023-05-08T04:57:11.265Z,41.85
2023-05-08T04:57:42.675Z,42.29
2023-05-08T04:58:14.081Z,42.19
2023-05-08T04:58:45.489Z,42.21
2023-05-08T04:59:16.889Z,42.17
2023-05-08T04:59:48.270Z,42.21
2023-05-08T05:00:19.725Z,42.26
2023-05-08T05:00:51.157Z,41.98
2023-05-08T05:01:22.620Z,42.06
2023-05-08T05:01:54.086Z,42.12
2023-05-08T05:02:25.570Z,42.33
2023-05-08T05:02:57.070Z,42.11
2023-05-08T05:03:28.575Z,41.99
2023-05-08T05:03:59.991Z,41.71
2023-05-08T05:04:31.425Z,42.03
2023-05-08T05:05:02.853Z,42.31
2023-05-08T05:05:34.330Z,42.10
2023-05-08T05:06:05.742Z,42.33
2023-05-08T05:06:37.144Z,41.80
2023-05-08T05:07:08.573Z,42.18
2023-05-08T05:07:40.009Z,42.23
2023-05-08T05:08:11.412Z,42.24
2023-05-08T05:08:42.807Z,42.02
2023-05-08T05:09:14.203Z,41.88
2023-05-08T05:09:45.593Z,41.78
2023-05-08T05:10:17.037Z,42.17
2023-05-08T05:10:48.480Z,41.94
2023-05-08T05:11:19.889Z,41.62
2023-05-08T05:11:51.300Z,41.89
2023-05-08T05:12:22.700Z,42.00
2023-05-08T05:12:54.157Z,41.85
2023-05-08T05:13:25.614Z,41.64
2023-05-08T05:13:57.040Z,41.88
2023-05-08T05:14:28.440Z,42.17
2023-05-08T05:14:59.849Z,41.65
2023-05-08T05:15:31.293Z,41.53
2023-05-08T05:16:02.738Z,42.08
2023-05-08T05:16:34.217Z,41.84
2023-05-08T05:17:05.655Z,41.89
2023-05-08T05:17:37.122Z,41.88
2023-05-08T05:18:08.597Z,42.05
2023-05-08T05:18:40.053Z,41.77
2023-05-08T05:19:11.467Z,42.05
2023-05-08T05:19:42.882Z,41.67
2023-05-08T05:20:14.334Z,41.93
2023-05-08T05:20:45.770Z,41.93
2023-05-08T05:21:17.188Z,41.77
2023-05-08T05:21:48.577Z,42.27
2023-05-08T05:22:20.297Z,41.94
2023-05-08T05:22:51.714Z,42.01
2023-05-08T05:23:23.128Z,42.07
2023-05-08T05:23:54.541Z,41.94
2023-05-08T05:24:25.938Z,41.80
2023-05-08T05:24:57.344Z,42.11
2023-05-08T05:25:28.756Z,42.03
2023-05-08T05:26:00.176Z,42.28
2023-05-08T05:26:31.583Z,42.09
2023-05-08T05:27:02.999Z,41.80
2023-05-08T05:27:34.429Z,41.72
2023-05-08T05:28:05.834Z,41.85
2023-05-08T05:28:37.250Z,41.94
2023-05-08T05:29:08.751Z,41.69
2023-05-08T05:29:40.225Z,41.58
2023-05-08T05:30:11.814Z,41.72
2023-05-08T05:30:43.452Z,42.14
2023-05-08T05:31:14.862Z,41.80
2023-05-08T05:31:46.350Z,41.97
2023-05-08T05:32:17.845Z,42.19
2023-05-08T05:32:49.266Z,41.77
2023-05-08T05:33:20.722Z,42.15
2023-05-08T05:33:52.134Z,41.88
2023-05-08T05:34:23.540Z,42.30
2023-05-08T05:34:54.955Z,41.78
2023-05-08T05:35:26.384Z,42.18
2023-05-08T05:35:57.787Z,42.04
2023-05-08T05:36:29.175Z,42.03
2023-05-08T05:37:00.598Z,42.27
2023-05-08T05:37:32.079Z,42.19
2023-05-08T05:38:03.479Z,41.86
2023-05-08T05:38:34.877Z,41.84
2023-05-08T05:39:06.266Z,42.02
2023-05-08T05:39:37.699Z,41.87
2023-05-08T05:40:09.125Z,42.27
2023-05-08T05:40:40.512Z,41.87
2023-05-08T05:41:11.916Z,41.94
2023-05-08T05:41:43.334Z,41.92
2023-05-08T05:42:14.721Z,41.95
2023-05-08T05:42:46.150Z,42.14
2023-05-08T05:43:17.559Z,41.67
2023-05-08T05:43:48.966Z,42.01
2023-05-08T05:44:20.354Z,41.53
2023-05-08T05:44:51.772Z,41.70
2023-05-08T05:45:23.165Z,41.52
2023-05-08T05:45:54.579Z,41.99
2023-05-08T05:46:26.003Z,42.16
2023-05-08T05:46:57.505Z,41.59
2023-05-08T05:47:28.971Z,41.69
2023-05-08T05:48:00.460Z,42.15
2023-05-08T05:48:31.970Z,41.65
2023-05-08T05:49:03.434Z,41.74
2023-05-08T05:49:34.836Z,41.82
2023-05-08T05:50:06.264Z,42.22
2023-05-08T05:50:37.720Z,41.90
2023-05-08T05:51:09.142Z,42.14
2023-05-08T05:51:40.553Z,41.99
2023-05-08T05:52:11.959Z,42.09
2023-05-08T05:52:43.428Z,41.92
2023-05-08T05:53:14.830Z,41.59
2023-05-08T05:53:46.231Z,41.81
2023-05-08T05:54:17.627Z,42.08
2023-05-08T05:54:49.041Z,41.90
2023-05-08T05:55:20.462Z,41.83
2023-05-08T05:55:51.908Z,41.81
2023-05-08T05:56:23.304Z,41.76
2023-05-08T05:56:54.709Z,41.90
2023-05-08T05:57:26.159Z,41.89
2023-05-08T05:57:57.574Z,41.67
2023-05-08T05:58:28.979Z,41.82
2023-05-08T05:59:00.369Z,42.01
2023-05-08T05:59:31.793Z,41.95
2023-05-08T06:00:03.190Z,41.82
2023-05-08T06:00:34.592Z,41.84
2023-05-08T06:01:05.992Z,41.78
2023-05-08T06:01:37.391Z,41.68
2023-05-08T06:02:08.837Z,41.68
2023-05-08T06:02:40.714Z,42.07
2023-05-08T06:03:12.334Z,42.07
2023-05-08T06:03:43.887Z,41.66
2023-05-08T06:04:15.424Z,41.72
2023-05-08T06:04:46.861Z,41.94
2023-05-08T06:05:18.267Z,41.54
2023-05-08T06:05:49.674Z,41.93
2023-05-08T06:06:21.082Z,41.82
2023-05-08T06:06:52.497Z,41.58
2023-05-08T06:07:23.877Z,41.51
2023-05-08T06:07:55.311Z,41.85
2023-05-08T06:08:26.726Z,41.46
2023-05-08T06:08:58.152Z,41.72
2023-05-08T06:09:29.552Z,41.98
2023-05-08T06:10:00.948Z,42.13
2023-05-08T06:10:32.420Z,41.93
2023-05-08T06:11:03.823Z,41.82
2023-05-08T06:11:35.291Z,42.03
2023-05-08T06:12:06.727Z,41.65
2023-05-08T06:12:38.163Z,41.91
2023-05-08T06:13:09.772Z,42.03
2023-05-08T06:13:41.216Z,41.91
2023-05-08T06:14:12.604Z,41.79
2023-05-08T06:14:43.989Z,41.77
2023-05-08T06:15:15.554Z,41.98
2023-05-08T06:15:47.040Z,41.63
2023-05-08T06:16:18.469Z,41.85
2023-05-08T06:16:49.928Z,41.53
2023-05-08T06:17:21.378Z,41.62
2023-05-08T06:17:52.873Z,41.60
2023-05-08T06:18:24.368Z,41.65
2023-05-08T06:18:55.793Z,42.09
2023-05-08T06:19:27.213Z,41.80
2023-05-08T06:19:58.642Z,41.86
2023-05-08T06:20:30.058Z,41.70
2023-05-08T06:21:01.492Z,41.93
2023-05-08T06:21:32.911Z,42.10
2023-05-08T06:22:04.329Z,41.48
2023-05-08T06:22:35.744Z,41.85
2023-05-08T06:23:07.149Z,41.57
2023-05-08T06:23:38.595Z,41.64
2023-05-08T06:24:09.989Z,41.53
2023-05-08T06:24:41.395Z,41.60
2023-05-08T06:25:13.075Z,41.92
2023-05-08T06:25:44.700Z,41.37
2023-05-08T06:26:16.105Z,41.65
2023-05-08T06:26:47.532Z,41.47
2023-05-08T06:27:18.944Z,41.62
2023-05-08T06:27:50.345Z,41.75
2023-05-08T06:28:21.768Z,41.48
2023-05-08T06:28:53.177Z,41.75
2023-05-08T06:29:24.568Z,41.62
2023-05-08T06:29:56.000Z,41.41
2023-05-08T06:30:27.514Z,41.78
2023-05-08T06:30:58.989Z,41.72
2023-05-08T06:31:30.442Z,41.69
2023-05-08T06:32:01.908Z,41.40
2023-05-08T06:32:33.321Z,41.53
2023-05-08T06:33:04.818Z,41.64
2023-05-08T06:33:36.272Z,41.92
2023-05-08T06:34:07.683Z,41.94
2023-05-08T06:34:39.091Z,41.44
2023-05-08T06:35:10.628Z,41.61
2023-05-08T06:35:42.220Z,41.53
2023-05-08T06:36:13.674Z,41.74
2023-05-08T06:36:45.073Z,41.85
2023-05-08T06:37:16.498Z,41.53
2023-05-08T06:37:47.933Z,41.61
2023-05-08T06:38:19.349Z,41.85
2023-05-08T06:38:50.758Z,41.51
2023-05-08T06:39:22.164Z,41.64
2023-05-08T06:40:03.863Z,42.13
2023-05-08T06:40:42.822Z,41.67
2023-05-08T06:41:15.385Z,42.16
2023-05-08T06:41:46.998Z,41.75
2023-05-08T06:42:18.399Z,41.76
2023-05-08T06:42:49.808Z,42.14
2023-05-08T06:43:21.218Z,41.67
2023-05-08T06:43:52.619Z,42.14
2023-05-08T06:44:24.045Z,41.95
2023-05-08T06:44:55.457Z,41.69
2023-05-08T06:45:26.861Z,41.52